createdAt,value
2019-04-14T00:02:03.098Z,59.20
2019-04-14T00:04:37.832Z,62.60
2019-04-14T00:07:05.880Z,54.73
2019-04-14T00:09:33.730Z,53.90
2019-04-14T00:12:04.337Z,56.03
2019-04-14T00:14:31.405Z,55.57
2019-04-14T00:16:59.632Z,51.47
2019-04-14T00:19:28.341Z,59.93
2019-04-14T00:22:00.849Z,58.33
2019-04-14T00:24:29.097Z,58.33
2019-04-14T00:26:57.327Z,52.57
2019-04-14T00:29:24.679Z,60.67
2019-04-14T00:31:53.714Z,54.20
2019-04-14T00:34:35.317Z,53.40
2019-04-14T00:37:40.475Z,53.77
2019-04-14T00:40:10.576Z,54.63
2019-04-14T00:42:47.362Z,53.90
2019-04-14T00:45:31.938Z,57.50
2019-04-14T00:48:01.125Z,53.93
2019-04-14T00:50:23.319Z,55.40
2019-04-14T00:52:50.586Z,54.17
2019-04-14T00:55:18.336Z,55.83
2019-04-14T00:57:46.327Z,55.53
2019-04-14T01:00:17.308Z,54.00
2019-04-14T01:02:46.966Z,61.30
2019-04-14T01:05:15.257Z,52.63
2019-04-14T01:07:43.419Z,55.87
2019-04-14T01:10:10.829Z,51.67
2019-04-14T01:12:38.787Z,54.87
2019-04-14T01:15:07.177Z,50.37
2019-04-14T01:17:35.256Z,57.23
2019-04-14T01:20:03.613Z,59.07
2019-04-14T01:22:31.465Z,56.27
2019-04-14T01:24:59.929Z,55.13
2019-04-14T01:27:27.817Z,62.27
2019-04-14T01:29:55.912Z,61.47
2019-04-14T01:32:24.091Z,54.67
2019-04-14T01:34:53.658Z,57.77
2019-04-14T01:37:20.686Z,60.63
2019-04-14T01:39:48.367Z,53.50
2019-04-14T01:42:15.943Z,57.40
2019-04-14T01:44:43.817Z,60.23
2019-04-14T01:47:11.681Z,54.27
2019-04-14T01:49:39.716Z,56.70
2019-04-14T01:52:34.190Z,61.07
2019-04-14T01:55:13.269Z,65.37
2019-04-14T01:58:01.045Z,61.87
2019-04-14T02:01:04.122Z,59.73
2019-04-14T02:03:32.277Z,68.03
2019-04-14T02:06:00.369Z,59.40
2019-04-14T02:08:28.421Z,64.43
2019-04-14T02:10:56.546Z,66.17
2019-04-14T02:13:24.718Z,65.87
2019-04-14T02:15:52.821Z,74.53
2019-04-14T02:18:20.944Z,91.43
2019-04-14T02:20:49.056Z,74.50
2019-04-14T02:23:17.130Z,75.47
2019-04-14T02:25:45.031Z,77.73
2019-04-14T02:28:13.410Z,71.23
2019-04-14T02:30:49.843Z,73.23
2019-04-14T02:33:40.309Z,75.37
2019-04-14T02:36:14.794Z,70.00
2019-04-14T02:38:45.268Z,68.37
2019-04-14T02:43:44.983Z,76.27
2019-04-14T02:48:47.932Z,72.83
2019-04-14T02:51:04.238Z,68.53
2019-04-14T02:53:34.377Z,75.40
2019-04-14T02:58:42.054Z,96.57
2019-04-14T03:01:11.847Z,72.63
2019-04-14T03:06:01.265Z,70.53
2019-04-14T03:08:25.743Z,68.80
2019-04-14T03:10:55.827Z,72.70
2019-04-14T03:15:58.904Z,62.37
2019-04-14T03:18:47.179Z,68.27
2019-04-14T03:21:30.279Z,70.83
2019-04-14T03:24:13.121Z,67.87
2019-04-14T03:26:54.492Z,70.43
2019-04-14T03:29:32.577Z,67.40
2019-04-14T03:39:27.483Z,70.63
2019-04-14T03:41:57.709Z,74.77
2019-04-14T03:46:52.249Z,69.77
2019-04-14T03:49:26.444Z,68.43
2019-04-14T03:54:12.358Z,72.33
2019-04-14T03:56:51.238Z,59.87
2019-04-14T03:59:19.617Z,66.27
2019-04-14T04:01:47.881Z,66.13
2019-04-14T04:04:16.148Z,71.83
2019-04-14T04:06:44.253Z,69.97
2019-04-14T04:09:12.585Z,66.67
2019-04-14T04:11:41.189Z,70.47
2019-04-14T04:14:09.649Z,70.43
2019-04-14T04:16:55.429Z,70.47
2019-04-14T04:19:40.535Z,68.80
2019-04-14T04:22:23.687Z,66.57
2019-04-14T04:24:56.530Z,71.60
2019-04-14T04:27:44.030Z,69.27
2019-04-14T04:30:16.517Z,65.20
2019-04-14T04:32:49.645Z,65.60
2019-04-14T04:35:24.199Z,63.27
2019-04-14T04:38:07.254Z,66.13
2019-04-14T04:40:35.383Z,67.30
2019-04-14T04:43:03.724Z,64.97
2019-04-14T04:45:32.046Z,63.20
2019-04-14T04:48:00.221Z,63.57
2019-04-14T04:50:28.261Z,59.13
2019-04-14T04:52:56.193Z,61.80
2019-04-14T04:55:24.198Z,59.37
2019-04-14T04:57:52.397Z,62.33
2019-04-14T05:00:20.037Z,56.80
2019-04-14T05:02:48.250Z,59.47
2019-04-14T05:05:53.571Z,60.37
2019-04-14T05:08:21.690Z,57.33
2019-04-14T05:10:54.751Z,54.43
2019-04-14T05:13:27.021Z,56.70
2019-04-14T05:15:57.503Z,59.73
2019-04-14T05:18:26.799Z,62.07
2019-04-14T05:20:55.395Z,55.27
2019-04-14T05:23:23.448Z,58.70
2019-04-14T05:25:51.719Z,57.37
2019-04-14T05:28:19.914Z,54.00
2019-04-14T05:30:48.278Z,54.17
2019-04-14T05:33:16.261Z,53.57
2019-04-14T05:35:44.538Z,54.67
2019-04-14T05:38:12.659Z,53.83
2019-04-14T05:40:40.815Z,54.80
2019-04-14T05:43:08.855Z,51.67
2019-04-14T05:45:37.310Z,51.50
2019-04-14T05:48:05.365Z,58.00
2019-04-14T05:50:33.506Z,47.20
2019-04-14T05:53:02.159Z,50.70
2019-04-14T05:55:30.591Z,47.60
2019-04-14T05:57:59.098Z,46.93
2019-04-14T06:00:27.784Z,48.27
2019-04-14T06:02:55.268Z,46.57
2019-04-14T06:05:23.273Z,44.67
2019-04-14T06:07:50.558Z,45.17
2019-04-14T06:10:17.844Z,42.87
2019-04-14T06:12:45.096Z,50.53
2019-04-14T06:15:12.435Z,51.53
2019-04-14T06:17:39.672Z,46.63
2019-04-14T06:20:08.227Z,48.37
2019-04-14T06:22:36.476Z,49.03
2019-04-14T06:25:06.232Z,55.73
2019-04-14T06:27:34.738Z,48.90
2019-04-14T06:30:20.120Z,48.00
2019-04-14T06:32:47.688Z,48.67
2019-04-14T06:35:28.472Z,46.43
2019-04-14T06:38:01.738Z,41.00
2019-04-14T06:40:35.526Z,44.37
2019-04-14T06:43:02.760Z,45.87
2019-04-14T06:45:30.134Z,50.93
2019-04-14T06:47:57.391Z,44.57
2019-04-14T06:50:24.659Z,40.77
2019-04-14T06:52:51.905Z,47.23
2019-04-14T06:55:19.147Z,48.87
2019-04-14T06:57:46.395Z,40.63
2019-04-14T07:00:13.647Z,45.70
2019-04-14T07:02:40.879Z,44.67
2019-04-14T07:05:08.110Z,41.27
2019-04-14T07:07:35.453Z,42.43
2019-04-14T07:10:02.954Z,41.13
2019-04-14T07:12:30.223Z,39.23
2019-04-14T07:15:03.953Z,42.13
2019-04-14T07:17:31.181Z,40.17
2019-04-14T07:20:02.130Z,37.90
2019-04-14T07:22:27.608Z,40.87
2019-04-14T07:24:54.856Z,40.83
2019-04-14T07:27:22.107Z,36.10
2019-04-14T07:29:55.769Z,33.10
2019-04-14T07:32:48.311Z,35.63
2019-04-14T07:35:40.984Z,35.23
2019-04-14T07:38:13.427Z,35.13
2019-04-14T07:41:03.039Z,32.40
2019-04-14T07:43:50.863Z,36.30
2019-04-14T07:46:37.548Z,31.17
2019-04-14T07:49:22.720Z,32.67
2019-04-14T07:52:08.351Z,32.43
2019-04-14T07:54:51.447Z,31.00
2019-04-14T07:57:31.259Z,28.93
2019-04-14T08:00:10.937Z,28.47
2019-04-14T08:02:54.468Z,28.50
2019-04-14T08:05:28.200Z,25.07
2019-04-14T08:07:56.945Z,25.50
2019-04-14T08:10:24.194Z,27.47
2019-04-14T08:12:51.720Z,25.60
2019-04-14T08:15:18.993Z,23.50
2019-04-14T08:17:46.408Z,28.40
2019-04-14T08:20:26.398Z,28.40
2019-04-14T08:22:43.427Z,26.10
2019-04-14T08:25:11.008Z,27.07
2019-04-14T08:27:38.342Z,26.13
2019-04-14T08:30:06.155Z,26.10
2019-04-14T08:32:33.423Z,25.73
2019-04-14T08:35:00.769Z,28.47
2019-04-14T08:37:28.135Z,26.03
2019-04-14T08:39:55.404Z,25.63
2019-04-14T08:42:41.038Z,25.80
2019-04-14T08:45:29.276Z,20.60
2019-04-14T08:48:13.312Z,24.63
2019-04-14T08:51:03.304Z,22.03
2019-04-14T08:53:41.816Z,24.23
2019-04-14T08:56:27.378Z,25.27
2019-04-14T08:59:16.641Z,27.13
2019-04-14T09:01:59.299Z,26.87
2019-04-14T09:04:38.861Z,24.80
2019-04-14T09:07:14.196Z,23.20
2019-04-14T09:09:47.358Z,24.23
2019-04-14T09:12:16.983Z,21.07
2019-04-14T09:14:56.154Z,23.23
2019-04-14T09:17:13.432Z,21.47
2019-04-14T09:19:40.728Z,20.23
2019-04-14T09:22:07.958Z,21.60
2019-04-14T09:24:35.203Z,20.77
2019-04-14T09:27:02.431Z,22.30
2019-04-14T09:29:29.686Z,18.50
2019-04-14T09:31:56.952Z,20.30
2019-04-14T09:34:24.220Z,19.03
2019-04-14T09:36:51.456Z,21.60
2019-04-14T09:39:18.790Z,23.57
2019-04-14T09:41:46.036Z,18.00
2019-04-14T09:44:13.297Z,18.77
2019-04-14T09:46:40.587Z,18.57
2019-04-14T09:49:07.922Z,18.50
2019-04-14T09:51:35.194Z,28.03
2019-04-14T09:54:02.571Z,18.67
2019-04-14T09:56:29.822Z,18.77
2019-04-14T09:58:57.064Z,20.93
2019-04-14T10:01:24.440Z,21.93
2019-04-14T10:03:53.431Z,19.57
2019-04-14T10:06:20.980Z,19.47
2019-04-14T10:08:48.211Z,18.90
2019-04-14T10:11:15.471Z,19.40
2019-04-14T10:13:42.693Z,19.37
2019-04-14T10:16:10.020Z,17.60
2019-04-14T10:18:37.499Z,17.20
2019-04-14T10:21:16.525Z,18.50
2019-04-14T10:23:33.897Z,17.13
2019-04-14T10:26:01.160Z,18.70
2019-04-14T10:28:28.429Z,18.23
2019-04-14T10:30:55.859Z,17.50
2019-04-14T10:33:23.113Z,19.37
2019-04-14T10:35:50.527Z,20.33
2019-04-14T10:38:18.040Z,16.60
2019-04-14T10:40:45.648Z,16.93
2019-04-14T10:43:12.986Z,18.00
2019-04-14T10:45:40.404Z,19.25
2019-04-14T10:48:07.713Z,16.07
2019-04-14T10:50:34.965Z,15.90
2019-04-14T10:53:02.278Z,17.00
2019-04-14T10:55:29.657Z,15.80
2019-04-14T10:57:56.944Z,16.80
2019-04-14T11:00:24.385Z,19.35
2019-04-14T11:02:51.692Z,15.28
2019-04-14T11:05:19.044Z,15.08
2019-04-14T11:07:46.992Z,23.00
2019-04-14T11:10:14.373Z,18.05
2019-04-14T11:12:41.690Z,20.60
2019-04-14T11:15:09.670Z,17.42
2019-04-14T11:17:36.947Z,16.67
2019-04-14T11:20:05.011Z,16.87
2019-04-14T11:22:34.666Z,19.90
2019-04-14T11:25:03.320Z,17.77
2019-04-14T11:27:33.280Z,17.77
2019-04-14T11:30:00.883Z,15.20
2019-04-14T11:32:52.600Z,16.10
2019-04-14T11:35:42.464Z,15.08
2019-04-14T11:38:16.151Z,15.10
2019-04-14T11:40:50.149Z,15.40
2019-04-14T11:43:18.231Z,16.32
2019-04-14T11:45:48.849Z,14.95
2019-04-14T11:48:17.673Z,14.05
2019-04-14T11:50:45.582Z,15.03
2019-04-14T11:53:14.444Z,14.18
2019-04-14T11:55:42.170Z,14.73
2019-04-14T11:58:10.604Z,15.30
2019-04-14T12:00:56.860Z,13.88
2019-04-14T12:03:56.275Z,15.48
2019-04-14T12:06:43.089Z,17.07
2019-04-14T12:09:22.364Z,14.73
2019-04-14T12:11:49.973Z,15.18
2019-04-14T12:14:17.696Z,14.40
2019-04-14T12:16:45.371Z,13.65
2019-04-14T12:19:12.981Z,19.52
2019-04-14T12:21:43.498Z,18.30
2019-04-14T12:24:11.423Z,15.30
2019-04-14T12:26:38.916Z,17.48
2019-04-14T12:29:06.763Z,15.08
2019-04-14T12:31:35.321Z,14.23
2019-04-14T12:34:02.876Z,12.82
2019-04-14T12:36:31.729Z,15.43
2019-04-14T12:39:01.147Z,16.30
2019-04-14T12:41:40.668Z,15.38
2019-04-14T12:44:26.825Z,13.65
2019-04-14T12:47:08.759Z,12.88
2019-04-14T12:49:42.736Z,14.05
2019-04-14T12:52:21.367Z,12.68
2019-04-14T12:54:47.453Z,12.58
2019-04-14T12:57:17.160Z,14.87
2019-04-14T12:59:44.796Z,14.50
2019-04-14T13:02:40.946Z,13.22
2019-04-14T13:05:08.790Z,18.07
2019-04-14T13:07:36.934Z,14.47
2019-04-14T13:10:06.293Z,13.45
2019-04-14T13:12:33.989Z,15.03
2019-04-14T13:15:02.941Z,14.85
2019-04-14T13:17:30.791Z,17.37
2019-04-14T13:19:58.443Z,15.32
2019-04-14T13:22:33.750Z,15.60
2019-04-14T13:24:56.387Z,14.60
2019-04-14T13:27:25.187Z,14.70
2019-04-14T13:29:53.223Z,19.17
2019-04-14T13:32:21.389Z,14.15
2019-04-14T13:34:51.089Z,17.30
2019-04-14T13:37:19.047Z,16.32
2019-04-14T13:39:46.630Z,17.98
2019-04-14T13:42:14.746Z,20.85
2019-04-14T13:44:42.624Z,15.90
2019-04-14T13:47:10.159Z,13.72
2019-04-14T13:49:37.871Z,15.18
2019-04-14T13:52:05.475Z,15.13
2019-04-14T13:54:33.622Z,14.23
2019-04-14T13:57:01.075Z,16.27
2019-04-14T13:59:28.996Z,13.60
2019-04-14T14:01:57.727Z,15.35
2019-04-14T14:04:25.477Z,15.88
2019-04-14T14:06:53.161Z,16.17
2019-04-14T14:09:23.210Z,15.43
2019-04-14T14:12:08.926Z,16.62
2019-04-14T14:15:03.150Z,14.15
2019-04-14T14:17:53.316Z,14.15
2019-04-14T14:20:30.767Z,16.32
2019-04-14T14:23:33.025Z,14.40
2019-04-14T14:26:04.659Z,15.53
2019-04-14T14:28:32.635Z,14.18
2019-04-14T14:31:00.909Z,13.13
2019-04-14T14:33:28.956Z,14.38
2019-04-14T14:35:57.620Z,14.40
2019-04-14T14:38:26.902Z,14.53
2019-04-14T14:40:56.791Z,14.93
2019-04-14T14:43:24.397Z,13.20
2019-04-14T14:46:01.506Z,16.15
2019-04-14T14:48:34.923Z,12.70
2019-04-14T14:51:13.848Z,14.68
2019-04-14T14:53:42.659Z,11.27
2019-04-14T14:56:13.868Z,13.60
2019-04-14T14:58:42.125Z,13.80
2019-04-14T15:01:12.372Z,12.30
2019-04-14T15:03:42.598Z,14.97
2019-04-14T15:06:11.745Z,10.20
2019-04-14T15:08:41.461Z,10.80
2019-04-14T15:11:09.186Z,10.67
2019-04-14T15:13:37.320Z,9.70
2019-04-14T15:16:05.184Z,13.00
2019-04-14T15:18:32.992Z,11.10
2019-04-14T15:21:00.737Z,10.83
2019-04-14T15:23:28.255Z,10.00
2019-04-14T15:25:55.631Z,10.83
2019-04-14T15:28:23.014Z,10.27
2019-04-14T15:30:53.833Z,10.03
2019-04-14T15:33:21.454Z,11.97
2019-04-14T15:35:49.149Z,11.60
2019-04-14T15:38:16.591Z,9.73
2019-04-14T15:40:44.064Z,9.83
2019-04-14T15:43:12.320Z,10.67
2019-04-14T15:45:39.889Z,10.83
2019-04-14T15:48:07.248Z,10.70
2019-04-14T15:50:34.838Z,10.40
2019-04-14T15:53:02.139Z,9.70
2019-04-14T15:55:29.613Z,10.33
2019-04-14T15:58:02.988Z,10.00
2019-04-14T16:00:55.875Z,10.33
2019-04-14T16:03:34.532Z,11.33
2019-04-14T16:06:14.215Z,9.83
2019-04-14T16:08:57.405Z,13.70
2019-04-14T16:11:47.377Z,10.97
2019-04-14T16:14:34.347Z,10.57
2019-04-14T16:17:21.773Z,9.50
2019-04-14T16:19:54.104Z,10.83
2019-04-14T16:22:21.476Z,11.17
2019-04-14T16:24:48.868Z,10.77
2019-04-14T16:27:34.555Z,12.00
2019-04-14T16:30:20.384Z,16.57
2019-04-14T16:33:09.786Z,12.90
2019-04-14T16:35:37.771Z,15.33
2019-04-14T16:38:05.304Z,11.60
2019-04-14T16:40:32.962Z,12.40
2019-04-14T16:43:00.732Z,11.90
2019-04-14T16:45:28.648Z,13.97
2019-04-14T16:47:55.979Z,11.80
2019-04-14T16:50:23.357Z,12.30
2019-04-14T16:52:55.912Z,11.67
2019-04-14T16:55:48.941Z,13.50
2019-04-14T16:58:35.864Z,11.53
2019-04-14T17:01:17.886Z,12.17
2019-04-14T17:03:45.128Z,11.77
2019-04-14T17:06:12.561Z,15.10
2019-04-14T17:08:40.118Z,12.80
2019-04-14T17:11:07.695Z,14.23
2019-04-14T17:13:38.353Z,13.70
2019-04-14T17:16:25.280Z,11.33
2019-04-14T17:19:07.665Z,10.13
2019-04-14T17:21:41.316Z,12.33
2019-04-14T17:24:29.200Z,11.43
2019-04-14T17:27:09.043Z,11.03
2019-04-14T17:30:04.945Z,12.47
2019-04-14T17:32:50.304Z,10.47
2019-04-14T17:35:29.960Z,12.07
2019-04-14T17:38:16.801Z,15.57
2019-04-14T17:41:02.572Z,11.53
2019-04-14T17:43:32.784Z,11.33
2019-04-14T17:46:26.467Z,12.30
2019-04-14T17:49:15.999Z,10.60
2019-04-14T17:51:49.999Z,11.30
2019-04-14T17:54:52.253Z,10.67
2019-04-14T17:57:43.860Z,11.53
2019-04-14T18:00:42.685Z,10.10
2019-04-14T18:03:32.408Z,13.07
2019-04-14T18:06:18.585Z,9.70
2019-04-14T18:09:05.445Z,10.13
2019-04-14T18:11:55.028Z,9.90
2019-04-14T18:14:31.800Z,10.73
2019-04-14T18:17:24.476Z,8.20
2019-04-14T18:19:55.796Z,10.27
2019-04-14T18:22:23.082Z,8.43
2019-04-14T18:24:50.330Z,8.87
2019-04-14T18:27:18.338Z,10.43
2019-04-14T18:30:02.174Z,9.00
2019-04-14T18:32:51.145Z,12.10
2019-04-14T18:35:25.147Z,9.30
2019-04-14T18:38:21.407Z,9.40
2019-04-14T18:41:04.833Z,9.10
2019-04-14T18:43:39.172Z,9.90
2019-04-14T18:46:10.820Z,10.07
2019-04-14T18:48:43.711Z,10.77
2019-04-14T18:51:31.180Z,9.03
2019-04-14T18:54:06.336Z,11.57
2019-04-14T18:56:59.341Z,8.67
2019-04-14T18:59:41.960Z,7.87
2019-04-14T19:02:11.241Z,9.73
2019-04-14T19:04:39.293Z,9.23
2019-04-14T19:07:07.256Z,9.20
2019-04-14T19:09:34.488Z,9.50
2019-04-14T19:12:20.016Z,8.33
2019-04-14T19:14:48.809Z,8.67
2019-04-14T19:17:38.345Z,8.57
2019-04-14T19:20:06.061Z,9.80
2019-04-14T19:22:33.509Z,9.27
2019-04-14T19:25:08.072Z,9.10
2019-04-14T19:27:30.135Z,9.03
2019-04-14T19:29:57.635Z,8.20
2019-04-14T19:32:25.139Z,8.43
2019-04-14T19:34:52.445Z,8.00
2019-04-14T19:37:19.837Z,7.00
2019-04-14T19:39:47.220Z,7.23
2019-04-14T19:42:14.572Z,6.70
2019-04-14T19:44:41.861Z,6.17
2019-04-14T19:47:09.145Z,6.10
2019-04-14T19:49:36.455Z,6.30
2019-04-14T19:52:03.871Z,6.17
2019-04-14T19:54:31.242Z,5.77
2019-04-14T19:56:58.561Z,5.07
2019-04-14T19:59:26.166Z,4.93
2019-04-14T20:01:53.750Z,5.43
2019-04-14T20:04:21.132Z,4.90
2019-04-14T20:06:48.495Z,4.53
2019-04-14T20:09:15.910Z,5.47
2019-04-14T20:11:43.235Z,5.90
2019-04-14T20:14:10.678Z,4.83
2019-04-14T20:16:50.644Z,4.87
2019-04-14T20:19:35.955Z,4.43
2019-04-14T20:22:15.178Z,4.70
2019-04-14T20:25:02.104Z,4.60
2019-04-14T20:27:54.763Z,4.53
2019-04-14T20:30:35.396Z,4.83
2019-04-14T20:33:02.839Z,4.00
2019-04-14T20:35:30.365Z,4.63
2019-04-14T20:37:57.975Z,4.10
2019-04-14T20:40:25.245Z,4.63
2019-04-14T20:42:52.841Z,4.07
2019-04-14T20:45:20.254Z,4.00
2019-04-14T20:47:47.667Z,5.00
2019-04-14T20:50:15.248Z,4.63
2019-04-14T20:52:42.772Z,4.30
2019-04-14T20:55:10.279Z,4.80
2019-04-14T20:57:37.699Z,5.00
2019-04-14T21:00:06.337Z,5.50
2019-04-14T21:02:51.427Z,4.93
2019-04-14T21:05:44.272Z,6.43
2019-04-14T21:08:29.891Z,7.03
2019-04-14T21:11:12.530Z,5.97
2019-04-14T21:13:47.409Z,5.27
2019-04-14T21:16:40.706Z,6.00
2019-04-14T21:19:27.756Z,5.50
2019-04-14T21:22:17.160Z,4.80
2019-04-14T21:24:52.721Z,5.73
2019-04-14T21:27:54.662Z,6.47
2019-04-14T21:30:47.321Z,6.40
2019-04-14T21:33:32.746Z,5.57
2019-04-14T21:36:09.595Z,5.33
2019-04-14T21:38:59.403Z,5.17
2019-04-14T21:41:28.276Z,5.93
2019-04-14T21:43:55.525Z,6.67
2019-04-14T21:46:22.770Z,5.37
2019-04-14T21:48:50.007Z,5.17
2019-04-14T21:51:17.276Z,6.30
2019-04-14T21:53:45.538Z,6.10
2019-04-14T21:56:21.603Z,6.53
2019-04-14T21:59:00.969Z,6.20
2019-04-14T22:01:53.691Z,6.43
2019-04-14T22:04:50.265Z,6.27
2019-04-14T22:07:25.768Z,6.60
2019-04-14T22:09:56.031Z,7.10
2019-04-14T22:12:23.385Z,6.03
2019-04-14T22:14:50.779Z,7.03
2019-04-14T22:17:18.008Z,6.57
2019-04-14T22:19:45.363Z,6.80
2019-04-14T22:22:12.736Z,8.10
2019-04-14T22:24:40.002Z,7.03
2019-04-14T22:27:07.250Z,7.97
2019-04-14T22:29:34.603Z,7.47
2019-04-14T22:32:01.861Z,7.53
2019-04-14T22:34:29.099Z,7.27
2019-04-14T22:36:56.426Z,7.90
2019-04-14T22:39:23.659Z,11.03
2019-04-14T22:41:50.921Z,8.37
2019-04-14T22:44:18.274Z,6.80
2019-04-14T22:46:45.591Z,6.80
2019-04-14T22:49:16.999Z,8.37
2019-04-14T22:51:44.238Z,8.73
2019-04-14T22:54:11.491Z,7.87
2019-04-14T22:56:39.773Z,7.90
2019-04-14T22:59:07.332Z,7.97
2019-04-14T23:01:36.399Z,8.53
2019-04-14T23:04:11.773Z,8.57
2019-04-14T23:06:57.542Z,11.93
2019-04-14T23:09:35.821Z,8.03
2019-04-14T23:12:40.719Z,8.50
2019-04-14T23:15:24.044Z,10.40
2019-04-14T23:18:16.808Z,8.17
2019-04-14T23:21:02.367Z,9.00
2019-04-14T23:23:38.442Z,8.33
2019-04-14T23:26:05.679Z,7.33
2019-04-14T23:28:32.919Z,8.83
2019-04-14T23:31:01.732Z,8.10
2019-04-14T23:33:29.275Z,9.23
2019-04-14T23:36:02.407Z,9.30
2019-04-14T23:38:29.675Z,8.87
2019-04-14T23:40:56.990Z,9.97
2019-04-14T23:43:24.266Z,8.67
2019-04-14T23:45:51.492Z,8.33
2019-04-14T23:48:18.979Z,8.70
2019-04-14T23:50:46.231Z,10.37
2019-04-14T23:53:13.474Z,11.37
2019-04-14T23:55:40.859Z,11.30
2019-04-14T23:58:08.138Z,12.50
